Time;durP1;ratioP1;P1;durP2;ratioP2;P2;SDS_P1;SDS_P2;PMS_P1;PMS_P2;Temp;Humidity;BMP_temperature;BMP_pressure;BME280_temperature;BME280_humidity;BME280_pressure;Samples;Min_cycle;Max_cycle;Signal;HPM_P1;HPM_P2
2020/12/22 00:01:00;;;;;;;7.73;7.03;;;6.60;99.90;;;7.34;73.76;94679.72;4979523;28;20289;-79
2020/12/22 00:03:28;;;;;;;8.70;7.90;;;6.60;99.90;;;7.33;74.22;94678.13;5008619;28;20224;-79
2020/12/22 00:05:54;;;;;;;8.40;7.53;;;6.60;99.90;;;7.37;73.75;94677.44;4992378;28;20532;-79
2020/12/22 00:08:23;;;;;;;8.10;7.40;;;6.60;99.90;;;7.29;73.50;94674.31;4980919;28;20209;-79
2020/12/22 00:10:58;;;;;;;9.10;8.20;;;6.60;99.90;;;7.23;73.80;94676.03;4992527;28;20181;-79
2020/12/22 00:13:26;;;;;;;8.97;8.10;;;6.60;99.90;;;7.16;73.96;94676.13;4990408;28;20179;-79
2020/12/22 00:16:22;;;;;;;8.53;7.63;;;6.50;99.90;;;7.11;74.26;94668.09;4995493;28;20195;-79
2020/12/22 00:18:48;;;;;;;10.40;8.97;;;6.50;99.90;;;7.07;74.62;94659.03;4990164;28;20257;-79
2020/12/22 00:21:32;;;;;;;10.00;8.70;;;6.40;99.90;;;7.11;74.10;94672.56;4971680;28;20206;-79
2020/12/22 00:23:58;;;;;;;9.10;8.20;;;6.40;99.90;;;7.14;74.11;94669.47;4991077;28;20204;-80
2020/12/22 00:26:35;;;;;;;9.70;8.70;;;6.40;99.90;;;7.04;74.39;94675.28;4985423;28;20197;-79
2020/12/22 00:29:30;;;;;;;9.63;8.70;;;6.40;99.90;;;6.97;74.38;94690.38;4976096;28;20322;-80
2020/12/22 00:32:05;;;;;;;9.77;8.40;;;6.30;99.90;;;6.84;74.21;94687.09;4977589;28;20209;-79
2020/12/22 00:34:32;;;;;;;10.27;9.23;;;6.20;99.90;;;6.86;74.25;94685.03;4990331;28;20224;-79
2020/12/22 00:37:12;;;;;;;9.50;8.50;;;6.20;99.90;;;6.87;74.28;94700.63;4971167;28;20683;-79
2020/12/22 00:39:50;;;;;;;9.83;8.83;;;6.20;99.90;;;6.92;73.66;94711.31;4974759;28;20279;-79
2020/12/22 00:42:32;;;;;;;8.83;7.90;;;6.20;99.90;;;7.02;74.20;94713.41;4971560;28;20204;-79
2020/12/22 00:45:08;;;;;;;8.53;7.67;;;6.20;99.90;;;7.13;74.40;94705.56;5012875;28;20194;-79
2020/12/22 00:47:43;;;;;;;8.20;7.40;;;6.30;99.90;;;7.32;74.05;94716.06;4973358;28;20220;-79
2020/12/22 00:50:20;;;;;;;8.57;7.63;;;6.40;99.90;;;7.36;74.59;94709.31;4991012;28;20587;-79
2020/12/22 00:52:48;;;;;;;8.57;7.67;;;6.40;99.90;;;7.41;73.89;94693.63;4969734;28;20227;-79
2020/12/22 00:55:52;;;;;;;8.53;7.57;;;6.50;99.90;;;7.51;74.42;94693.88;4959556;28;20198;-79
2020/12/22 00:58:27;;;;;;;8.27;7.47;;;6.50;99.90;;;7.66;74.77;94686.34;4991069;28;20192;-79
2020/12/22 01:00:53;;;;;;;8.70;7.67;;;6.60;99.90;;;7.70;74.70;94688.31;4995285;28;20191;-80
2020/12/22 01:03:21;;;;;;;7.93;7.13;;;6.70;99.90;;;7.79;74.84;94687.97;4997116;28;20192;-79
2020/12/22 01:05:48;;;;;;;8.00;7.20;;;6.80;99.90;;;7.88;74.54;94692.69;4998925;28;20188;-78
2020/12/22 01:08:16;;;;;;;7.60;6.90;;;6.90;99.90;;;7.95;74.36;94693.38;5017794;28;20208;-79
2020/12/22 01:10:43;;;;;;;8.33;7.50;;;6.90;99.90;;;8.10;74.68;94690.28;4999463;28;20270;-78
2020/12/22 01:13:39;;;;;;;7.17;6.47;;;7.10;99.90;;;8.20;74.62;94703.72;4998803;28;20185;-78
2020/12/22 01:16:05;;;;;;;6.80;6.10;;;7.20;99.90;;;8.30;74.80;94703.16;4916447;29;20195;-79
2020/12/22 01:18:30;;;;;;;6.30;5.70;;;7.30;99.90;;;8.39;74.33;94697.34;4904119;29;20206;-79
2020/12/22 01:21:05;;;;;;;6.93;6.27;;;7.40;99.90;;;8.48;74.66;94705.69;4920273;29;20222;-79
2020/12/22 01:23:33;;;;;;;6.37;5.20;;;7.50;99.90;;;8.53;74.99;94708.44;4915312;29;20243;-79
2020/12/22 01:26:00;;;;;;;6.27;5.67;;;7.50;99.90;;;8.57;74.67;94693.72;4914277;29;20196;-79
2020/12/22 01:28:29;;;;;;;6.13;5.53;;;7.60;99.90;;;8.61;74.73;94679.03;4935993;29;20895;-79
2020/12/22 01:31:05;;;;;;;5.80;5.30;;;7.60;99.90;;;8.67;74.46;94680.72;4920491;29;20641;-79
2020/12/22 01:33:31;;;;;;;6.07;5.47;;;7.70;99.90;;;8.66;75.23;94676.50;4922204;29;20238;-79
2020/12/22 01:35:57;;;;;;;5.70;5.20;;;7.70;99.90;;;8.69;74.35;94679.47;4935992;29;20648;-79
2020/12/22 01:38:23;;;;;;;5.70;5.07;;;7.80;99.90;;;8.73;75.20;94687.72;4904215;29;20254;-79
2020/12/22 01:40:50;;;;;;;5.00;4.53;;;7.80;99.90;;;8.77;75.02;94675.66;4920071;29;20207;-79
2020/12/22 01:43:26;;;;;;;5.13;4.63;;;7.90;99.90;;;8.84;74.84;94673.69;4919824;29;20576;-79
2020/12/22 01:46:02;;;;;;;5.10;4.60;;;7.90;99.90;;;8.80;75.32;94677.03;4904302;29;20263;-78
2020/12/22 01:48:28;;;;;;;5.40;4.67;;;7.90;99.90;;;8.64;74.98;94652.94;4903832;29;20239;-79
2020/12/22 01:50:56;;;;;;;4.97;4.57;;;7.80;99.90;;;8.65;74.64;94664.31;4901627;29;20184;-79
2020/12/22 01:53:41;;;;;;;5.10;4.60;;;7.80;99.90;;;8.44;75.28;94659.63;4961322;28;20197;-79
2020/12/22 01:56:07;;;;;;;5.40;4.90;;;7.60;99.90;;;8.34;75.09;94670.00;4997819;28;20541;-79
2020/12/22 01:58:37;;;;;;;6.10;5.50;;;7.50;99.90;;;8.19;75.15;94659.88;4961985;28;20235;-80
2020/12/22 02:01:04;;;;;;;5.50;5.00;;;7.40;99.90;;;8.03;75.14;94671.91;4992183;28;20497;-79
2020/12/22 02:04:03;;;;;;;6.90;5.83;;;7.30;99.90;;;7.88;74.94;94690.06;4981465;28;20224;-79
2020/12/22 02:10:28;;;;;;;6.70;5.93;;;7.00;99.90;;;7.62;75.18;94688.63;4971088;28;20200;-79
2020/12/22 02:12:54;;;;;;;6.37;5.77;;;6.90;99.90;;;7.49;74.66;94696.72;4959458;28;20195;-79
2020/12/22 02:15:30;;;;;;;6.40;5.80;;;6.80;99.90;;;7.36;75.39;94688.22;4945116;28;20196;-79
2020/12/22 02:17:56;;;;;;;7.87;7.07;;;6.70;99.90;;;7.31;74.84;94706.56;4955325;28;20183;-78
2020/12/22 02:20:28;;;;;;;8.67;6.57;;;6.60;99.90;;;7.21;75.04;94710.53;4947100;28;20758;-77
2020/12/22 02:22:56;;;;;;;7.63;6.83;;;6.50;99.90;;;7.17;74.97;94719.09;4957767;28;20335;-78
2020/12/22 02:25:24;;;;;;;9.47;7.20;;;6.50;99.90;;;7.09;75.35;94703.59;4941639;28;20217;-78
2020/12/22 02:27:54;;;;;;;8.30;7.47;;;6.40;99.90;;;7.16;74.63;94704.31;4957326;28;20707;-78
2020/12/22 02:30:48;;;;;;;8.50;7.60;;;6.50;99.90;;;7.31;75.02;94711.81;4974524;28;20213;-78
2020/12/22 02:33:33;;;;;;;8.57;7.47;;;6.50;99.90;;;7.21;74.87;94704.47;4963434;28;20198;-80
2020/12/22 02:35:59;;;;;;;8.67;7.80;;;6.40;99.90;;;7.10;75.28;94695.47;4973732;28;20226;-78
2020/12/22 02:38:29;;;;;;;9.00;8.10;;;6.30;99.90;;;7.19;75.50;94696.75;4941334;28;20291;-79
2020/12/22 02:40:57;;;;;;;8.97;7.83;;;6.30;99.90;;;7.11;75.37;94701.56;4942302;28;20197;-79
2020/12/22 02:43:41;;;;;;;8.47;7.67;;;6.30;99.90;;;7.02;75.46;94695.75;4957472;28;20183;-79
2020/12/22 02:46:08;;;;;;;8.77;7.87;;;6.30;99.90;;;6.96;75.21;94683.50;4968668;28;20668;-79
2020/12/22 02:48:38;;;;;;;8.83;7.93;;;6.20;99.90;;;7.00;74.86;94697.84;4995562;28;20207;-79
2020/12/22 02:51:05;;;;;;;9.57;8.03;;;6.20;99.90;;;6.97;74.57;94695.66;4997330;28;20169;-79
2020/12/22 02:53:49;;;;;;;9.23;8.33;;;6.20;99.90;;;7.06;75.28;94681.13;4964483;28;20189;-79
2020/12/22 02:56:15;;;;;;;9.17;8.23;;;6.20;99.90;;;7.06;75.87;94669.78;4997087;28;20169;-79
2020/12/22 02:58:51;;;;;;;9.37;8.37;;;6.20;99.90;;;7.08;75.20;94676.44;4965976;28;20660;-79
2020/12/22 03:01:19;;;;;;;8.90;8.00;;;6.20;99.90;;;7.13;75.91;94673.94;4981048;28;20197;-79
2020/12/22 03:03:46;;;;;;;8.93;8.03;;;6.30;99.90;;;7.06;75.66;94678.50;4980531;28;20194;-79
2020/12/22 03:06:34;;;;;;;8.50;7.70;;;6.30;99.90;;;7.05;74.83;94679.50;4996886;28;20553;-79
2020/12/22 03:09:07;;;;;;;8.10;7.30;;;6.20;99.90;;;6.97;75.32;94671.94;4990086;28;20207;-79
2020/12/22 03:11:36;;;;;;;8.47;7.57;;;6.20;99.90;;;6.92;75.60;94678.88;4980376;28;20165;-79
2020/12/22 03:14:14;;;;;;;9.03;8.13;;;6.10;99.90;;;6.85;75.27;94689.50;5013822;28;20185;-79
2020/12/22 03:16:46;;;;;;;9.37;8.37;;;6.10;99.90;;;6.94;75.93;94674.22;4980291;28;20191;-79
2020/12/22 03:19:13;;;;;;;8.67;7.77;;;6.10;99.90;;;6.91;75.78;94677.28;4980292;28;20723;-79
2020/12/22 03:21:51;;;;;;;10.53;8.47;;;6.10;99.90;;;7.06;75.47;94675.03;4989019;28;20194;-79
2020/12/22 03:24:29;;;;;;;9.27;7.77;;;6.20;99.90;;;6.95;75.56;94666.06;4985017;28;20260;-79
2020/12/22 03:26:56;;;;;;;10.07;8.20;;;6.20;99.90;;;7.01;75.94;94669.66;4995648;28;20773;-79
2020/12/22 03:29:48;;;;;;;8.90;8.00;;;6.20;99.90;;;6.95;76.04;94678.47;4979838;28;20208;-79
2020/12/22 03:32:24;;;;;;;8.30;7.50;;;6.10;99.90;;;6.86;75.59;94671.88;4972122;28;20193;-79
2020/12/22 03:34:51;;;;;;;8.47;7.50;;;6.10;99.90;;;6.77;76.51;94662.66;4940193;28;20218;-79
2020/12/22 03:37:20;;;;;;;8.07;7.27;;;6.00;99.90;;;6.68;76.12;94667.44;4956518;28;20562;-79
2020/12/22 03:39:50;;;;;;;7.30;6.60;;;5.90;99.90;;;6.62;75.89;94671.75;4971806;28;20228;-79
2020/12/22 03:42:17;;;;;;;8.53;7.73;;;5.90;99.90;;;6.59;76.14;94672.19;4956286;28;20251;-79
2020/12/22 03:44:52;;;;;;;8.77;7.87;;;5.80;99.90;;;6.54;75.34;94677.34;4968058;28;20202;-79
2020/12/22 03:47:20;;;;;;;7.40;6.63;;;5.80;99.90;;;6.46;75.72;94656.56;4924189;28;20298;-79
2020/12/22 03:49:58;;;;;;;8.13;7.33;;;5.70;99.90;;;6.39;75.97;94668.97;4957728;28;20210;-79
2020/12/22 03:52:37;;;;;;;8.77;7.97;;;5.60;99.90;;;6.32;75.99;94660.34;4956456;28;20181;-79
2020/12/22 03:55:04;;;;;;;8.00;7.20;;;5.60;99.90;;;6.30;76.09;94664.22;4956145;28;20181;-79
2020/12/22 03:57:58;;;;;;;9.93;7.67;;;5.60;99.90;;;6.27;76.39;94664.69;4940346;28;20288;-79
2020/12/22 04:00:24;;;;;;;9.27;7.90;;;5.50;99.90;;;6.19;75.38;94660.50;4970896;28;20825;-79
2020/12/22 04:02:59;;;;;;;8.13;7.33;;;5.50;99.90;;;6.21;76.48;94671.63;4955471;28;20226;-79
2020/12/22 04:05:26;;;;;;;7.90;7.10;;;5.50;99.90;;;6.23;75.21;94674.84;4955966;28;20208;-79
2020/12/22 04:08:18;;;;;;;8.93;7.93;;;5.50;99.90;;;6.18;75.70;94672.84;4941280;28;20212;-79
2020/12/22 04:10:48;;;;;;;9.13;8.17;;;5.40;99.90;;;6.21;76.43;94678.72;4940137;28;20190;-78
2020/12/22 04:13:31;;;;;;;10.90;9.13;;;5.40;99.90;;;6.19;75.57;94690.25;4973195;28;20191;-79
2020/12/22 04:16:18;;;;;;;11.00;8.87;;;5.40;99.90;;;6.24;75.99;94691.44;4942982;28;20378;-79
2020/12/22 04:18:56;;;;;;;11.77;9.30;;;5.40;99.90;;;6.23;75.59;94685.34;4953563;28;20238;-79
2020/12/22 04:21:32;;;;;;;12.17;9.40;;;5.40;99.90;;;6.24;76.12;94694.06;4958262;28;20232;-79
2020/12/22 04:24:09;;;;;;;11.27;9.27;;;5.30;99.90;;;6.26;76.20;94708.59;4991858;28;20197;-78
2020/12/22 04:26:37;;;;;;;10.67;8.87;;;5.40;99.90;;;6.26;76.52;94698.06;4939942;28;20555;-79
2020/12/22 04:29:04;;;;;;;11.03;9.83;;;5.40;99.90;;;6.31;76.12;94694.81;4953452;28;20235;-80
2020/12/22 04:31:48;;;;;;;11.87;9.60;;;5.50;99.90;;;6.46;75.88;94680.25;4958894;28;20579;-79
2020/12/22 04:34:24;;;;;;;13.23;10.20;;;5.60;99.90;;;6.43;76.08;94678.06;4958381;28;20292;-79
2020/12/22 04:36:49;;;;;;;12.30;9.37;;;5.60;99.90;;;6.42;77.12;94679.06;4960560;28;20236;-79
2020/12/22 04:39:15;;;;;;;10.27;8.63;;;5.60;99.90;;;6.45;76.41;94681.25;4978571;28;20196;-80
2020/12/22 04:41:49;;;;;;;10.50;8.57;;;5.70;99.90;;;6.43;76.90;94680.69;4927831;28;20232;-79
2020/12/22 04:44:49;;;;;;;11.03;9.13;;;5.70;99.90;;;6.43;76.51;94682.50;4930341;29;20297;-79
2020/12/22 04:47:31;;;;;;;10.67;8.77;;;5.70;99.90;;;6.52;76.44;94694.34;4830870;29;20216;-79
2020/12/22 04:50:04;;;;;;;8.97;7.60;;;5.70;99.90;;;6.51;76.07;94693.53;4846355;29;20300;-79
2020/12/22 04:52:32;;;;;;;8.47;7.50;;;5.70;99.90;;;6.49;76.79;94695.59;4862270;29;20239;-79
2020/12/22 04:55:14;;;;;;;9.07;8.03;;;5.70;99.90;;;6.44;76.35;94699.94;4846144;29;20681;-78
2020/12/22 04:57:55;;;;;;;11.73;10.30;;;5.70;99.90;;;6.45;76.49;94722.56;4846221;29;20737;-79
2020/12/22 05:00:27;;;;;;;11.77;10.00;;;5.70;99.90;;;6.44;76.73;94706.00;4861617;29;20681;-78
2020/12/22 05:03:08;;;;;;;10.60;9.53;;;5.70;99.90;;;6.49;77.07;94719.31;4830339;29;20266;-79
2020/12/22 05:05:46;;;;;;;11.43;10.10;;;5.70;99.90;;;6.44;76.18;94719.16;4846024;29;20211;-79
2020/12/22 05:08:15;;;;;;;9.57;8.57;;;5.70;99.90;;;6.52;76.82;94712.78;4861264;29;20693;-79
2020/12/22 05:11:01;;;;;;;8.87;7.93;;;5.80;99.90;;;6.53;76.47;94725.75;4845916;29;20198;-81
2020/12/22 05:13:29;;;;;;;9.23;7.67;;;5.80;99.90;;;6.54;76.56;94716.81;4844270;29;20261;-79
2020/12/22 05:15:56;;;;;;;8.37;7.53;;;5.80;99.90;;;6.58;76.70;94720.59;4845993;29;20565;-79
2020/12/22 05:18:36;;;;;;;8.50;7.70;;;5.80;99.90;;;6.61;76.89;94729.94;4868042;29;20692;-79
2020/12/22 05:21:03;;;;;;;8.13;7.30;;;5.90;99.90;;;6.62;76.14;94720.97;4897216;29;20212;-78
2020/12/22 05:23:33;;;;;;;10.00;8.13;;;5.90;99.90;;;6.64;77.27;94725.03;4963824;28;20278;-79
2020/12/22 05:26:09;;;;;;;9.60;8.00;;;5.90;99.90;;;6.78;76.24;94740.69;4967069;28;20194;-78
2020/12/22 05:28:41;;;;;;;9.33;7.77;;;5.90;99.90;;;6.85;76.29;94733.50;4996217;28;20216;-79
2020/12/22 05:31:29;;;;;;;7.83;6.93;;;6.00;99.90;;;6.89;76.72;94735.47;4998281;28;20212;-79
2020/12/22 05:34:10;;;;;;;8.03;7.20;;;6.10;99.90;;;6.93;76.87;94718.19;4998252;28;20239;-79
2020/12/22 05:36:39;;;;;;;7.43;6.67;;;6.10;99.90;;;7.08;76.86;94723.88;4996904;28;20247;-79
2020/12/22 05:39:13;;;;;;;9.17;7.33;;;6.30;99.90;;;7.18;76.65;94721.50;5014727;28;20204;-79
2020/12/22 05:41:40;;;;;;;6.37;5.77;;;6.30;99.90;;;7.22;77.82;94711.31;5014287;28;20189;-80
2020/12/22 05:44:34;;;;;;;6.77;6.10;;;6.40;99.90;;;7.21;77.20;94717.63;4981868;28;20177;-79
2020/12/22 05:47:15;;;;;;;10.27;8.67;;;6.40;99.90;;;7.22;77.62;94706.84;4998210;28;20188;-79
2020/12/22 05:49:56;;;;;;;9.43;8.13;;;6.40;99.90;;;7.19;77.16;94709.94;4997274;28;20195;-79
2020/12/22 05:52:33;;;;;;;8.90;7.33;;;6.40;99.90;;;7.23;77.29;94711.09;5000125;28;20190;-83
2020/12/22 05:55:07;;;;;;;8.63;7.23;;;6.40;99.90;;;7.24;76.88;94709.28;5002230;28;20173;-79
2020/12/22 05:57:33;;;;;;;9.63;6.80;;;6.50;99.90;;;7.32;77.20;94719.50;5014439;28;20169;-79
2020/12/22 06:00:20;;;;;;;6.70;6.00;;;6.50;99.90;;;7.38;77.04;94721.25;5013035;28;20215;-79
2020/12/22 06:03:24;;;;;;;6.20;5.50;;;6.60;99.90;;;7.46;76.72;94728.03;4977043;28;20194;-79
2020/12/22 06:06:20;;;;;;;7.17;5.77;;;6.60;99.90;;;7.44;77.19;94722.19;4900407;29;20227;-79
2020/12/22 06:08:57;;;;;;;5.67;5.13;;;6.70;99.90;;;7.51;77.25;94720.25;4842256;29;20219;-79
2020/12/22 06:11:39;;;;;;;5.30;4.80;;;6.70;99.90;;;7.59;77.69;94714.66;4841890;29;20222;-79
2020/12/22 06:14:33;;;;;;;4.63;4.10;;;6.80;99.90;;;7.71;76.93;94732.13;4857385;29;20195;-80
2020/12/22 06:17:28;;;;;;;4.57;3.80;;;6.90;99.90;;;7.67;77.06;94715.13;4830184;29;20187;-81
2020/12/22 06:19:55;;;;;;;5.70;4.00;;;6.90;99.90;;;7.65;77.19;94722.50;4810292;29;20214;-80
2020/12/22 06:22:21;;;;;;;5.10;4.30;;;6.90;99.90;;;7.65;77.49;94726.97;4812086;29;20306;-81
2020/12/22 06:25:21;;;;;;;5.10;4.17;;;6.90;99.90;;;7.71;77.36;94731.31;4808755;29;20303;-80
2020/12/22 06:28:29;;;;;;;4.70;4.30;;;6.90;99.90;;;7.84;77.54;94731.13;4797654;29;20325;-80
2020/12/22 06:30:55;;;;;;;4.30;3.90;;;7.00;99.90;;;7.93;78.05;94723.66;4788163;29;20272;-79
2020/12/22 06:33:40;;;;;;;5.37;4.00;;;7.00;99.90;;;8.02;77.51;94730.22;4805691;29;20239;-80
2020/12/22 06:36:13;;;;;;;4.37;3.97;;;7.10;99.90;;;8.05;77.38;94727.94;4808739;29;20211;-80
2020/12/22 06:38:55;;;;;;;4.07;3.67;;;7.10;99.90;;;8.08;78.16;94730.13;4808271;29;20191;-79
2020/12/22 06:41:44;;;;;;;3.80;3.50;;;7.20;99.90;;;8.11;77.95;94729.66;4816721;29;20406;-80
2020/12/22 06:44:29;;;;;;;3.73;3.30;;;7.20;99.90;;;8.15;77.34;94730.00;4856400;29;20259;-83
2020/12/22 06:47:34;;;;;;;4.43;3.30;;;7.20;99.90;;;8.15;77.65;94722.91;4900277;29;20279;-80
2020/12/22 06:50:01;;;;;;;3.23;2.93;;;7.20;99.90;;;8.15;77.62;94720.25;4900256;29;20366;-82
2020/12/22 06:52:35;;;;;;;2.90;2.70;;;7.20;99.90;;;8.25;77.96;94722.31;4899278;29;20201;-81
2020/12/22 06:55:11;;;;;;;3.27;2.80;;;7.30;99.90;;;8.31;77.97;94723.28;4896320;29;20189;-81
2020/12/22 06:57:52;;;;;;;2.93;2.73;;;7.30;99.90;;;8.36;77.83;94729.47;4897105;29;20200;-81
2020/12/22 07:00:31;;;;;;;3.03;2.40;;;7.40;99.90;;;8.41;78.31;94737.50;4917571;29;20280;-81
2020/12/22 07:03:50;;;;;;;3.23;2.30;;;7.40;99.90;;;8.49;78.12;94733.72;4915651;28;20192;-81
2020/12/22 07:06:47;;;;;;;2.40;2.20;;;7.50;99.90;;;8.52;77.82;94733.25;4973857;28;20206;-82
2020/12/22 07:09:29;;;;;;;3.13;2.83;;;7.50;99.90;;;8.48;78.28;94722.34;4957173;28;20261;-81
2020/12/22 07:12:10;;;;;;;2.70;2.50;;;7.50;99.90;;;8.49;78.04;94712.59;4956647;28;20186;-81
2020/12/22 07:14:55;;;;;;;3.80;2.40;;;7.50;99.90;;;8.41;77.97;94697.88;4975706;28;20209;-81
2020/12/22 07:17:34;;;;;;;2.40;2.20;;;7.50;99.90;;;8.48;78.31;94721.53;4938882;28;20666;-81
2020/12/22 07:20:12;;;;;;;3.03;2.37;;;7.50;99.90;;;8.49;78.13;94720.53;4938537;28;20195;-81
2020/12/22 07:23:27;;;;;;;3.63;3.00;;;7.50;99.90;;;8.44;77.77;94723.84;4969475;28;20198;-82
2020/12/22 07:26:03;;;;;;;3.67;3.30;;;7.50;99.90;;;8.52;77.69;94720.84;4971991;28;20196;-80
2020/12/22 07:28:41;;;;;;;3.50;3.20;;;7.60;99.90;;;8.46;78.12;94720.97;4922068;29;20230;-80
2020/12/22 07:31:08;;;;;;;7.60;6.13;;;7.60;99.90;;;8.42;77.84;94739.13;4972939;28;20696;-80
2020/12/22 07:33:44;;;;;;;3.97;3.57;;;7.50;99.90;;;8.49;77.90;94749.56;4938011;28;20257;-80
2020/12/22 07:36:12;;;;;;;4.50;3.30;;;7.50;99.90;;;8.59;78.35;94749.81;4928303;28;20209;-80
2020/12/22 07:38:38;;;;;;;4.37;2.70;;;7.60;99.90;;;8.63;77.64;94743.81;4946128;28;20289;-78
2020/12/22 07:41:04;;;;;;;2.30;2.10;;;7.70;99.90;;;8.72;77.47;94749.56;4962567;28;20236;-80
2020/12/22 07:44:10;;;;;;;2.40;2.20;;;7.70;99.90;;;8.96;78.00;94748.47;5020031;28;20201;-79
2020/12/22 07:47:00;;;;;;;14.20;10.20;;;7.90;99.90;;;9.13;78.00;94746.69;4953293;28;20618;-79
2020/12/22 07:49:26;;;;;;;2.67;2.47;;;8.10;99.90;;;9.33;78.06;94740.22;4923587;28;20254;-79
2020/12/22 07:51:52;;;;;;;3.20;2.90;;;8.30;99.90;;;9.51;78.22;94743.47;4923755;28;20209;-79
2020/12/22 07:54:57;;;;;;;2.93;2.60;;;8.50;99.90;;;9.70;78.00;94744.88;4925043;29;20209;-79
2020/12/22 07:57:30;;;;;;;2.03;1.90;;;8.70;99.90;;;9.86;77.96;94745.13;4882260;29;20198;-79
2020/12/22 08:00:18;;;;;;;2.23;2.03;;;8.80;99.90;;;10.06;78.35;94751.59;4882338;29;20241;-79
2020/12/22 08:02:55;;;;;;;3.43;2.80;;;9.00;99.90;;;10.16;78.14;94754.44;4885159;29;20194;-79
2020/12/22 08:05:38;;;;;;;2.90;2.70;;;9.20;99.90;;;10.26;78.33;94745.84;4865323;29;20193;-79
2020/12/22 08:08:15;;;;;;;3.40;3.10;;;9.30;99.90;;;10.32;78.18;94739.56;4872924;29;20688;-80
2020/12/22 08:10:50;;;;;;;3.63;3.00;;;9.30;99.90;;;10.35;78.32;94730.31;4870731;29;20207;-80
2020/12/22 08:13:29;;;;;;;3.07;2.77;;;9.40;99.90;;;10.63;78.12;94741.63;4898959;29;20205;-80
2020/12/22 08:16:07;;;;;;;3.17;2.87;;;9.60;99.90;;;10.81;78.21;94744.00;4877502;29;20208;-80
2020/12/22 08:18:35;;;;;;;2.50;2.30;;;9.90;99.90;;;11.21;78.24;94754.31;4874159;29;20688;-80
2020/12/22 08:21:01;;;;;;;2.67;2.47;;;10.20;99.90;;;12.10;78.22;94776.03;4940333;28;20254;-80
2020/12/22 08:23:40;;;;;;;2.50;2.30;;;10.80;99.90;;;13.50;78.04;94787.09;4936760;28;20228;-80
2020/12/22 08:26:54;;;;;;;3.37;2.70;;;12.10;99.90;;;14.29;77.83;94791.03;4923357;28;20303;-81
2020/12/22 08:29:20;;;;;;;2.83;2.63;;;13.10;99.90;;;15.34;77.63;94796.56;4879544;29;20236;-80
2020/12/22 08:32:05;;;;;;;2.70;2.50;;;14.10;99.90;;;17.85;77.77;94857.47;4883301;29;20722;-81
2020/12/22 08:34:45;;;;;;;2.93;2.50;;;16.20;99.90;;;20.20;77.38;94849.72;4927576;29;20195;-80
2020/12/22 08:37:11;;;;;;;1.80;1.70;;;18.60;99.90;;;21.35;77.23;94748.38;4932405;29;20709;-81
2020/12/22 08:39:44;;;;;;;1.53;1.43;;;20.30;99.90;;;21.04;76.94;94738.69;4901572;29;20233;-80
2020/12/22 08:42:11;;;;;;;1.60;1.50;;;20.80;99.90;;;20.34;76.70;94715.88;4925431;29;20627;-80
2020/12/22 08:44:39;;;;;;;1.70;1.60;;;20.60;99.90;;;19.46;76.39;94746.00;4901613;29;20666;-80
2020/12/22 08:47:22;;;;;;;1.50;1.40;;;20.00;99.90;;;18.64;76.29;94796.84;4922242;29;20661;-80
2020/12/22 08:50:08;;;;;;;2.03;1.83;;;19.30;99.90;;;18.37;75.95;94794.00;4939380;29;20205;-80
2020/12/22 08:52:58;;;;;;;2.10;1.90;;;18.90;99.90;;;18.21;75.56;94809.53;4925242;29;20196;-83
2020/12/22 08:55:26;;;;;;;2.43;2.23;;;18.40;99.90;;;18.22;75.24;94762.84;4921878;29;20252;-80
2020/12/22 08:58:18;;;;;;;2.20;2.00;;;18.20;99.90;;;19.15;74.88;94822.88;4923761;29;20288;-80
2020/12/22 09:00:58;;;;;;;2.20;2.00;;;18.80;99.90;;;20.37;74.86;94823.00;4902370;29;20201;-81
2020/12/22 09:03:27;;;;;;;2.73;2.00;;;20.00;99.90;;;21.80;74.56;94794.09;4929789;29;20670;-80
2020/12/22 09:05:55;;;;;;;2.77;1.80;;;21.40;99.90;;;23.19;73.74;94797.47;4995009;28;20192;-80
2020/12/22 09:08:23;;;;;;;2.80;2.10;;;22.90;99.90;;;23.48;73.97;94738.03;4978588;28;20220;-80
2020/12/22 09:11:07;;;;;;;2.83;2.03;;;23.70;97.50;;;22.53;74.06;94773.63;4993635;28;20196;-80
2020/12/22 09:13:33;;;;;;;2.80;2.30;;;23.30;96.40;;;21.29;73.55;94695.69;5012659;28;20192;-80
2020/12/22 09:16:51;;;;;;;1.97;1.70;;;22.50;96.90;;;19.81;73.15;94761.41;4982510;28;20196;-79
2020/12/22 09:19:39;;;;;;;2.10;1.90;;;21.20;98.00;;;18.43;72.87;94744.53;4919638;29;20550;-80
2020/12/22 09:22:21;;;;;;;2.80;2.03;;;19.90;99.90;;;17.41;72.58;94753.13;4926370;29;20191;-80
2020/12/22 09:25:09;;;;;;;2.87;2.20;;;18.80;99.90;;;16.27;72.34;94762.72;4933599;29;20256;-79
2020/12/22 09:27:44;;;;;;;2.00;1.90;;;17.60;99.90;;;15.77;72.36;94757.69;4940364;28;20226;-79
2020/12/22 09:30:42;;;;;;;2.47;2.27;;;16.80;99.90;;;15.40;72.38;94801.63;4952779;28;20199;-79
2020/12/22 09:33:08;;;;;;;1.43;1.33;;;16.10;99.90;;;15.77;71.92;94811.94;4882208;29;20202;-80
2020/12/22 09:35:43;;;;;;;1.50;1.40;;;15.90;99.90;;;18.09;72.06;94844.06;4882739;29;20237;-79
2020/12/22 09:38:09;;;;;;;1.90;1.60;;;17.40;99.90;;;18.31;71.73;94777.19;4860779;29;20226;-80
2020/12/22 09:40:34;;;;;;;1.97;1.50;;;18.10;99.90;;;17.88;71.61;94792.53;4872104;29;20246;-79
2020/12/22 09:43:32;;;;;;;1.67;1.57;;;17.90;99.90;;;19.39;71.24;94863.88;4882727;29;20267;-80
2020/12/22 09:46:06;;;;;;;2.00;1.70;;;18.70;99.90;;;19.43;71.26;94789.63;4811481;29;20202;-80
2020/12/22 09:48:33;;;;;;;2.90;1.83;;;19.10;99.90;;;18.81;71.11;94762.19;4803608;29;20309;-80
2020/12/22 09:51:01;;;;;;;1.90;1.70;;;19.00;99.90;;;17.91;70.96;94734.84;4827019;29;20199;-80
2020/12/22 09:53:29;;;;;;;3.20;1.70;;;18.40;99.90;;;17.46;70.94;94765.66;4838964;29;20226;-79
2020/12/22 09:55:58;;;;;;;2.20;2.00;;;17.90;99.90;;;17.34;70.72;94784.03;4860744;29;20188;-79
2020/12/22 09:58:25;;;;;;;2.83;2.03;;;17.60;99.90;;;17.46;70.37;94746.13;4845761;29;20228;-79
2020/12/22 10:00:51;;;;;;;2.57;2.37;;;17.60;99.90;;;18.11;70.12;94846.44;4846541;29;20196;-80
2020/12/22 10:03:33;;;;;;;2.63;2.23;;;17.70;99.90;;;21.42;69.95;94942.16;4837851;29;20264;-79
2020/12/22 10:06:05;;;;;;;1.70;1.60;;;20.40;99.90;;;24.97;69.19;94933.69;4859626;29;20189;-80
2020/12/22 10:08:33;;;;;;;1.80;1.70;;;23.80;98.50;;;27.63;69.21;94876.13;4873695;29;20546;-79
2020/12/22 10:11:04;;;;;;;2.53;1.40;;;26.80;91.60;;;28.96;69.05;94809.66;4917428;29;20299;-82
2020/12/22 10:13:40;;;;;;;1.50;1.40;;;28.80;80.40;;;29.70;68.14;94825.97;4914164;29;20197;-83
2020/12/22 10:16:14;;;;;;;2.47;1.60;;;30.10;73.00;;;30.58;67.59;94833.00;4921495;29;20278;-88
2020/12/22 10:19:11;;;;;;;1.40;1.30;;;31.20;68.40;;;30.19;66.95;94821.38;4908344;29;20219;-88
2020/12/22 10:21:39;;;;;;;1.40;1.30;;;31.50;65.40;;;28.59;67.05;94687.56;4845935;29;20838;-80
2020/12/22 10:24:05;;;;;;;1.40;1.30;;;30.60;66.10;;;26.47;66.12;94719.19;4900990;29;20192;-81
2020/12/22 10:26:35;;;;;;;1.30;1.20;;;28.90;68.80;;;26.08;65.79;94787.09;4869712;29;20735;-80
2020/12/22 10:29:03;;;;;;;2.10;1.37;;;28.00;70.40;;;26.38;65.66;94774.84;4904211;29;20604;-80
2020/12/22 10:31:31;;;;;;;1.40;1.30;;;27.80;71.10;;;27.93;65.08;94820.09;4889525;29;20746;-80
2020/12/22 10:34:07;;;;;;;1.30;1.20;;;28.80;69.50;;;26.77;64.66;94757.75;4899345;29;20218;-86
2020/12/22 10:36:33;;;;;;;1.40;1.13;;;28.70;68.70;;;24.48;64.74;94693.94;4874173;29;20211;-80
2020/12/22 10:38:59;;;;;;;1.50;1.40;;;27.00;70.50;;;23.13;64.20;94769.00;4864248;29;20225;-82
2020/12/22 10:41:27;;;;;;;1.50;1.40;;;25.50;75.30;;;21.88;64.24;94766.34;4847000;29;20201;-80
2020/12/22 10:43:53;;;;;;;1.30;1.20;;;24.00;79.30;;;20.84;63.63;94750.78;4886393;29;20723;-80
2020/12/22 10:46:39;;;;;;;1.23;1.13;;;22.70;82.60;;;20.18;63.59;94795.34;4881530;29;20716;-80
2020/12/22 10:49:34;;;;;;;1.93;1.20;;;21.70;87.40;;;19.39;63.49;94789.38;4900572;29;20263;-81
2020/12/22 10:52:09;;;;;;;1.20;1.10;;;20.70;90.60;;;18.77;63.47;94789.94;4848040;29;20211;-83
2020/12/22 10:54:54;;;;;;;1.90;1.37;;;19.80;92.10;;;18.36;63.18;94812.03;4858846;29;20192;-80
2020/12/22 10:57:21;;;;;;;1.53;1.10;;;19.10;93.80;;;17.92;63.19;94777.47;4869431;29;21114;-79
2020/12/22 11:00:07;;;;;;;1.00;0.87;;;18.60;95.50;;;17.83;63.17;94799.81;4905939;29;20221;-83
2020/12/22 11:02:49;;;;;;;1.30;1.20;;;18.40;97.10;;;17.46;62.94;94805.84;4902786;29;20198;-81
2020/12/22 11:08:19;;;;;;;1.17;1.00;;;17.50;99.40;;;17.21;62.63;94782.03;4934653;29;20295;-81
2020/12/22 11:10:55;;;;;;;1.20;1.10;;;17.30;99.90;;;17.23;62.81;94812.81;4903547;29;20627;-80
2020/12/22 11:13:30;;;;;;;0.80;0.80;;;17.10;99.90;;;17.18;62.22;94804.03;4880199;29;20616;-80